createdAt,value
2023-04-12T00:00:00.268Z,92.20
2023-04-12T00:02:27.939Z,92.20
2023-04-12T00:04:58.931Z,92.20
2023-04-12T00:07:26.319Z,92.20
2023-04-12T00:09:53.624Z,92.20
2023-04-12T00:12:20.971Z,92.20
2023-04-12T00:14:51.377Z,92.20
2023-04-12T00:17:20.162Z,92.20
2023-04-12T00:19:48.792Z,92.20
2023-04-12T00:22:16.567Z,92.20
2023-04-12T00:24:44.200Z,92.20
2023-04-12T00:27:11.962Z,92.20
2023-04-12T00:29:39.141Z,92.20
2023-04-12T00:32:06.607Z,92.20
2023-04-12T00:34:34.531Z,92.20
2023-04-12T00:37:02.897Z,92.20
2023-04-12T00:39:30.328Z,92.20
2023-04-12T00:41:57.712Z,92.20
2023-04-12T00:44:25.280Z,92.20
2023-04-12T00:46:55.424Z,92.20
2023-04-12T00:49:22.779Z,92.20
2023-04-12T00:51:50.080Z,92.20
2023-04-12T00:54:18.394Z,92.20
2023-04-12T00:56:47.523Z,92.20
2023-04-12T00:59:15.148Z,92.20
2023-04-12T01:01:42.523Z,92.20
2023-04-12T01:04:14.234Z,92.20
2023-04-12T01:07:01.828Z,92.20
2023-04-12T01:09:50.310Z,92.20
2023-04-12T01:12:22.215Z,92.20
2023-04-12T01:14:58.806Z,92.20
2023-04-12T01:17:31.964Z,92.20
2023-04-12T01:20:23.041Z,92.20
2023-04-12T01:23:04.003Z,92.20
2023-04-12T01:25:54.319Z,92.20
2023-04-12T01:28:29.744Z,92.20
2023-04-12T01:30:57.029Z,92.20
2023-04-12T01:33:31.599Z,92.20
2023-04-12T01:36:01.865Z,92.20
2023-04-12T01:38:30.061Z,92.20
2023-04-12T01:40:57.886Z,92.20
2023-04-12T01:43:26.025Z,92.20
2023-04-12T01:45:53.330Z,92.20
2023-04-12T01:48:21.046Z,92.20
2023-04-12T01:50:57.403Z,92.20
2023-04-12T01:53:38.004Z,92.20
2023-04-12T01:56:10.236Z,92.20
2023-04-12T01:58:40.903Z,92.20
2023-04-12T02:01:09.674Z,92.20
2023-04-12T02:03:38.189Z,92.20
2023-04-12T02:06:07.056Z,92.20
2023-04-12T02:08:34.658Z,92.20
2023-04-12T02:11:02.059Z,92.20
2023-04-12T02:13:29.354Z,92.20
2023-04-12T02:15:57.512Z,92.20
2023-04-12T02:18:24.812Z,92.20
2023-04-12T02:20:52.089Z,92.20
2023-04-12T02:23:19.406Z,92.20
2023-04-12T02:25:46.981Z,92.20
2023-04-12T02:28:15.457Z,92.20
2023-04-12T02:30:43.441Z,92.20
2023-04-12T02:33:12.024Z,92.20
2023-04-12T02:35:40.453Z,92.20
2023-04-12T02:38:08.833Z,92.20
2023-04-12T02:40:43.090Z,92.20
2023-04-12T02:43:10.632Z,92.20
2023-04-12T02:45:39.125Z,92.20
2023-04-12T02:48:06.833Z,92.20
2023-04-12T02:50:34.798Z,92.20
2023-04-12T02:53:02.497Z,92.20
2023-04-12T02:55:30.883Z,92.20
2023-04-12T02:57:58.879Z,92.20
2023-04-12T03:00:26.351Z,92.20
2023-04-12T03:02:54.264Z,92.20
2023-04-12T03:05:22.021Z,92.20
2023-04-12T03:07:49.354Z,92.20
2023-04-12T03:10:16.860Z,92.20
2023-04-12T03:12:44.251Z,92.20
2023-04-12T03:15:11.836Z,92.20
2023-04-12T03:17:39.359Z,92.20
2023-04-12T03:20:10.423Z,92.20
2023-04-12T03:22:38.755Z,92.20
2023-04-12T03:25:06.984Z,92.20
2023-04-12T03:27:35.282Z,92.20
2023-04-12T03:30:02.741Z,92.20
2023-04-12T03:32:32.801Z,92.20
2023-04-12T03:35:01.031Z,92.20
2023-04-12T03:37:28.472Z,92.20
2023-04-12T03:39:55.832Z,92.20
2023-04-12T03:42:32.842Z,92.20
2023-04-12T03:45:01.606Z,92.20
2023-04-12T03:47:29.263Z,92.20
2023-04-12T03:52:32.890Z,92.20
2023-04-12T03:55:01.723Z,92.20
2023-04-12T03:57:29.442Z,92.20
2023-04-12T03:59:56.832Z,92.20
2023-04-12T04:02:24.477Z,92.20
2023-04-12T04:04:52.088Z,92.20
2023-04-12T04:07:19.984Z,92.20
2023-04-12T04:09:47.309Z,92.20
2023-04-12T04:12:14.534Z,92.20
2023-04-12T04:14:41.887Z,92.20
2023-04-12T04:17:09.198Z,92.20
2023-04-12T04:19:36.725Z,92.20
2023-04-12T04:22:04.945Z,92.20
2023-04-12T04:24:32.262Z,92.20
2023-04-12T04:27:00.547Z,92.20
2023-04-12T04:29:29.641Z,92.20
2023-04-12T04:31:58.488Z,92.20
2023-04-12T04:34:26.687Z,92.20
2023-04-12T04:36:54.628Z,92.20
2023-04-12T04:39:21.961Z,92.20
2023-04-12T04:41:55.138Z,92.20
2023-04-12T04:44:22.621Z,92.20
2023-04-12T04:46:50.420Z,92.20
2023-04-12T04:49:17.836Z,92.20
2023-04-12T04:51:45.251Z,92.20
2023-04-12T04:54:14.173Z,92.20
2023-04-12T04:56:41.549Z,92.20
2023-04-12T04:59:09.488Z,92.20
2023-04-12T05:01:36.969Z,92.20
2023-04-12T05:04:04.556Z,92.20
2023-04-12T05:06:31.886Z,92.20
2023-04-12T05:09:01.085Z,92.20
2023-04-12T05:11:28.569Z,92.20
2023-04-12T05:13:56.056Z,92.20
2023-04-12T05:16:26.696Z,92.20
2023-04-12T05:18:54.560Z,92.20
2023-04-12T05:21:24.079Z,92.20
2023-04-12T05:23:52.138Z,92.20
2023-04-12T05:26:21.906Z,92.20
2023-04-12T05:28:49.200Z,92.20
2023-04-12T05:31:16.678Z,92.20
2023-04-12T05:33:45.153Z,92.20
2023-04-12T05:36:13.084Z,92.20
2023-04-12T05:38:40.671Z,92.20
2023-04-12T05:41:07.985Z,92.20
2023-04-12T05:43:37.947Z,92.20
2023-04-12T05:46:08.282Z,92.20
2023-04-12T05:48:36.044Z,92.20
2023-04-12T05:51:05.233Z,92.20
2023-04-12T05:53:33.261Z,92.20
2023-04-12T05:56:00.733Z,92.20
2023-04-12T05:58:28.070Z,92.20
2023-04-12T06:00:56.117Z,92.20
2023-04-12T06:03:27.115Z,92.20
2023-04-12T06:05:54.678Z,92.20
2023-04-12T06:08:22.046Z,92.20
2023-04-12T06:10:49.375Z,92.20
2023-04-12T06:13:16.746Z,92.20
2023-04-12T06:15:44.278Z,92.20
2023-04-12T06:18:13.216Z,92.20
2023-04-12T06:20:41.140Z,92.20
2023-04-12T06:23:08.543Z,92.20
2023-04-12T06:25:35.889Z,92.20
2023-04-12T06:28:03.326Z,92.20
2023-04-12T06:30:30.731Z,92.20
2023-04-12T06:32:58.269Z,92.20
2023-04-12T06:35:25.919Z,92.20
2023-04-12T06:37:53.210Z,92.20
2023-04-12T06:40:20.744Z,92.20
2023-04-12T06:42:48.181Z,92.20
2023-04-12T06:45:15.544Z,92.20
2023-04-12T06:47:42.915Z,92.20
2023-04-12T06:50:10.903Z,92.20
2023-04-12T06:52:39.643Z,92.20
2023-04-12T06:55:07.827Z,92.20
2023-04-12T06:57:35.285Z,92.20
2023-04-12T07:00:04.454Z,92.20
2023-04-12T07:02:32.898Z,91.70
2023-04-12T07:05:00.967Z,90.80
2023-04-12T07:07:29.315Z,90.90
2023-04-12T07:09:56.747Z,91.00
2023-04-12T07:12:24.661Z,90.90
2023-04-12T07:14:52.125Z,91.30
2023-04-12T07:17:21.721Z,92.20
2023-04-12T07:19:51.072Z,90.80
2023-04-12T07:22:18.964Z,90.80
2023-04-12T07:24:46.376Z,91.30
2023-04-12T07:27:13.811Z,90.50
2023-04-12T07:29:41.592Z,89.70
2023-04-12T07:32:11.443Z,89.50
2023-04-12T07:34:45.217Z,90.10
2023-04-12T07:37:13.688Z,88.80
2023-04-12T07:39:41.244Z,88.00
2023-04-12T07:42:09.358Z,88.60
2023-04-12T07:44:38.633Z,87.60
2023-04-12T07:47:07.517Z,88.20
2023-04-12T07:49:34.920Z,87.60
2023-04-12T07:52:02.727Z,87.00
2023-04-12T07:54:30.126Z,86.10
2023-04-12T07:57:03.613Z,86.60
2023-04-12T07:59:32.054Z,87.80
2023-04-12T08:02:00.045Z,85.80
2023-04-12T08:04:28.681Z,83.60
2023-04-12T08:06:57.339Z,83.30
2023-04-12T08:09:25.653Z,85.70
2023-04-12T08:11:53.417Z,84.40
2023-04-12T08:14:20.963Z,86.70
2023-04-12T08:16:48.919Z,84.40
2023-04-12T08:19:16.358Z,85.40
2023-04-12T08:21:43.735Z,85.70
2023-04-12T08:24:11.434Z,83.80
2023-04-12T08:26:39.174Z,83.40
2023-04-12T08:29:07.088Z,81.50
2023-04-12T08:31:34.698Z,80.40
2023-04-12T08:34:01.991Z,81.00
2023-04-12T08:36:29.379Z,80.00
2023-04-12T08:39:03.199Z,80.80
2023-04-12T08:41:30.506Z,80.40
2023-04-12T08:43:59.840Z,83.20
2023-04-12T08:46:28.487Z,84.60
2023-04-12T08:48:57.654Z,82.40
2023-04-12T08:51:25.095Z,82.90
2023-04-12T08:53:54.450Z,82.40
2023-04-12T08:56:23.710Z,81.20
2023-04-12T08:58:53.062Z,77.50
2023-04-12T09:01:21.659Z,77.10
2023-04-12T09:03:49.076Z,76.50
2023-04-12T09:06:16.677Z,78.30
2023-04-12T09:08:55.298Z,80.10
2023-04-12T09:11:29.864Z,78.00
2023-04-12T09:13:58.952Z,77.30
2023-04-12T09:16:36.369Z,77.10
2023-04-12T09:19:03.960Z,76.40
2023-04-12T09:21:34.962Z,77.60
2023-04-12T09:24:13.385Z,75.50
2023-04-12T09:26:42.066Z,77.20
2023-04-12T09:29:25.816Z,76.40
2023-04-12T09:32:04.271Z,75.30
2023-04-12T09:34:32.842Z,76.50
2023-04-12T09:37:02.383Z,76.10
2023-04-12T09:39:37.530Z,78.50
2023-04-12T09:42:32.544Z,74.30
2023-04-12T09:45:03.197Z,71.40
2023-04-12T09:47:41.505Z,72.00
2023-04-12T09:50:10.157Z,68.70
2023-04-12T09:52:39.576Z,69.80
2023-04-12T09:55:11.303Z,70.90
2023-04-12T09:57:43.893Z,70.90
2023-04-12T10:00:18.374Z,71.70
2023-04-12T10:02:49.042Z,73.60
2023-04-12T10:05:21.245Z,72.30
2023-04-12T10:07:50.303Z,69.60
2023-04-12T10:10:19.791Z,70.90
2023-04-12T10:12:48.825Z,71.00
2023-04-12T10:15:18.560Z,70.50
2023-04-12T10:17:48.373Z,70.60
2023-04-12T10:20:17.483Z,67.70
2023-04-12T10:22:51.003Z,66.10
2023-04-12T10:25:24.045Z,68.40
2023-04-12T10:27:52.125Z,68.10
2023-04-12T10:30:30.394Z,68.80
2023-04-12T10:33:08.495Z,69.40
2023-04-12T10:35:56.692Z,72.20
2023-04-12T10:38:27.086Z,73.40
2023-04-12T10:41:19.608Z,74.30
2023-04-12T10:43:53.569Z,73.00
2023-04-12T10:46:39.330Z,72.90
2023-04-12T10:49:11.390Z,73.10
2023-04-12T10:51:39.241Z,70.10
2023-04-12T10:54:12.461Z,66.90
2023-04-12T10:56:42.219Z,65.30
2023-04-12T10:59:13.279Z,65.10
2023-04-12T11:02:12.350Z,67.10
2023-04-12T11:05:10.913Z,64.90
2023-04-12T11:07:43.390Z,62.40
2023-04-12T11:10:20.249Z,63.80
2023-04-12T11:12:51.491Z,63.60
2023-04-12T11:15:19.758Z,62.50
2023-04-12T11:17:55.676Z,62.00
2023-04-12T11:20:23.657Z,61.50
2023-04-12T11:22:52.054Z,59.50
2023-04-12T11:25:19.773Z,61.20
2023-04-12T11:27:55.175Z,61.20
2023-04-12T11:30:23.888Z,58.60
2023-04-12T11:32:51.452Z,56.40
2023-04-12T11:35:24.878Z,56.00
2023-04-12T11:37:53.216Z,57.40
2023-04-12T11:40:23.358Z,56.80
2023-04-12T11:42:50.989Z,55.40
2023-04-12T11:45:22.411Z,53.70
2023-04-12T11:47:50.232Z,53.00
2023-04-12T11:50:31.230Z,55.00
2023-04-12T11:53:11.951Z,53.10
2023-04-12T11:55:39.475Z,56.10
2023-04-12T11:58:07.480Z,57.00
2023-04-12T12:00:35.188Z,58.90
2023-04-12T12:05:37.722Z,56.60
2023-04-12T12:08:08.153Z,54.50
2023-04-12T12:10:55.638Z,55.20
2023-04-12T12:13:28.289Z,57.10
2023-04-12T12:15:57.540Z,55.20
2023-04-12T12:18:29.525Z,53.70
2023-04-12T12:20:56.974Z,55.10
2023-04-12T12:23:34.413Z,57.00
2023-04-12T12:26:18.397Z,57.80
2023-04-12T12:28:50.756Z,59.50
2023-04-12T12:31:22.076Z,58.50
2023-04-12T12:33:53.001Z,57.70
2023-04-12T12:36:21.325Z,56.60
2023-04-12T12:38:49.542Z,58.00
2023-04-12T12:41:18.314Z,58.50
2023-04-12T12:43:50.942Z,57.10
2023-04-12T12:46:20.524Z,58.80
2023-04-12T12:48:49.886Z,59.60
2023-04-12T12:51:18.168Z,61.50
2023-04-12T12:53:46.805Z,62.30
2023-04-12T12:56:17.036Z,61.80
2023-04-12T12:58:44.529Z,60.00
2023-04-12T13:01:12.052Z,60.70
2023-04-12T13:03:39.568Z,60.40
2023-04-12T13:06:07.815Z,59.70
2023-04-12T13:08:37.698Z,61.20
2023-04-12T13:11:05.144Z,62.00
2023-04-12T13:13:32.480Z,59.70
2023-04-12T13:15:59.836Z,59.10
2023-04-12T13:18:27.361Z,58.80
2023-04-12T13:20:54.854Z,60.70
2023-04-12T13:23:22.317Z,61.10
2023-04-12T13:25:49.716Z,63.50
2023-04-12T13:28:20.995Z,61.10
2023-04-12T13:30:49.025Z,60.30
2023-04-12T13:33:20.143Z,59.00
2023-04-12T13:35:49.223Z,59.40
2023-04-12T13:38:16.510Z,59.80
2023-04-12T13:40:43.805Z,60.50
2023-04-12T13:43:11.690Z,62.60
2023-04-12T13:45:39.299Z,62.00
2023-04-12T13:48:06.807Z,62.40
2023-04-12T13:50:34.102Z,61.50
2023-04-12T13:53:02.024Z,59.00
2023-04-12T13:55:29.599Z,60.40
2023-04-12T13:57:57.803Z,60.10
2023-04-12T14:00:25.889Z,59.60
2023-04-12T14:02:53.147Z,59.80
2023-04-12T14:05:20.711Z,62.20
2023-04-12T14:07:50.126Z,61.70
2023-04-12T14:10:17.532Z,61.20
2023-04-12T14:12:45.940Z,61.70
2023-04-12T14:15:13.665Z,61.50
2023-04-12T14:17:41.534Z,61.50
2023-04-12T14:20:13.070Z,60.90
2023-04-12T14:22:43.686Z,61.50
2023-04-12T14:25:12.055Z,61.60
2023-04-12T14:27:39.813Z,62.60
2023-04-12T14:30:08.875Z,63.40
2023-04-12T14:32:36.672Z,64.20
2023-04-12T14:35:05.879Z,63.60
2023-04-12T14:37:36.298Z,64.70
2023-04-12T14:40:06.765Z,63.00
2023-04-12T14:42:38.908Z,63.20
2023-04-12T14:45:08.393Z,64.30
2023-04-12T14:47:36.390Z,65.30
2023-04-12T14:50:05.665Z,65.20
2023-04-12T14:52:33.114Z,64.70
2023-04-12T14:55:01.847Z,65.00
2023-04-12T14:57:30.387Z,65.00
2023-04-12T14:59:58.027Z,64.40
2023-04-12T15:02:26.512Z,64.20
2023-04-12T15:04:54.427Z,64.20
2023-04-12T15:07:22.274Z,65.00
2023-04-12T15:09:49.719Z,64.70
2023-04-12T15:12:17.645Z,65.00
2023-04-12T15:14:45.768Z,65.20
2023-04-12T15:17:13.227Z,64.60
2023-04-12T15:19:40.859Z,63.80
2023-04-12T15:22:08.176Z,64.10
2023-04-12T15:24:35.739Z,64.70
2023-04-12T15:27:06.328Z,64.80
2023-04-12T15:29:35.093Z,65.50
2023-04-12T15:32:03.821Z,64.60
2023-04-12T15:34:34.907Z,64.80
2023-04-12T15:37:03.454Z,64.80
2023-04-12T15:39:31.208Z,64.70
2023-04-12T15:41:58.572Z,65.10
2023-04-12T15:44:33.064Z,65.60
2023-04-12T15:47:10.822Z,67.60
2023-04-12T15:49:40.561Z,66.70
2023-04-12T15:52:08.265Z,66.30
2023-04-12T15:54:35.823Z,66.30
2023-04-12T15:57:09.723Z,66.40
2023-04-12T15:59:38.968Z,66.50
2023-04-12T16:02:09.145Z,67.00
2023-04-12T16:04:41.136Z,67.30
2023-04-12T16:07:09.814Z,67.00
2023-04-12T16:09:39.112Z,66.80
2023-04-12T16:12:08.304Z,67.20
2023-04-12T16:14:37.105Z,67.50
2023-04-12T16:17:04.449Z,68.00
2023-04-12T16:19:33.027Z,68.30
2023-04-12T16:22:00.993Z,68.00
2023-04-12T16:24:28.888Z,69.10
2023-04-12T16:26:58.082Z,69.40
2023-04-12T16:29:25.492Z,69.90
2023-04-12T16:31:53.196Z,70.50
2023-04-12T16:34:23.160Z,70.60
2023-04-12T16:36:52.026Z,70.70
2023-04-12T16:39:26.863Z,70.70
2023-04-12T16:41:57.748Z,70.70
2023-04-12T16:44:27.343Z,70.50
2023-04-12T16:46:55.386Z,70.10
2023-04-12T16:49:23.402Z,70.90
2023-04-12T16:51:51.280Z,71.00
2023-04-12T16:54:19.183Z,71.20
2023-04-12T16:56:47.569Z,71.50
2023-04-12T16:59:16.063Z,71.20
2023-04-12T17:01:47.201Z,72.30
2023-04-12T17:04:15.419Z,72.40
2023-04-12T17:06:44.539Z,72.80
2023-04-12T17:09:11.815Z,73.10
2023-04-12T17:11:43.559Z,73.20
2023-04-12T17:14:11.590Z,73.70
2023-04-12T17:16:39.493Z,74.00
2023-04-12T17:19:10.034Z,74.10
2023-04-12T17:21:41.725Z,74.20
2023-04-12T17:24:11.023Z,74.40
2023-04-12T17:26:38.853Z,74.80
2023-04-12T17:29:07.263Z,75.40
2023-04-12T17:31:36.599Z,75.60
2023-04-12T17:34:04.224Z,75.70
2023-04-12T17:36:34.489Z,76.10
2023-04-12T17:39:05.197Z,76.30
2023-04-12T17:41:32.600Z,76.70
2023-04-12T17:44:00.662Z,77.20
2023-04-12T17:46:28.281Z,77.50
2023-04-12T17:48:55.858Z,78.00
2023-04-12T17:51:23.495Z,78.10
2023-04-12T17:53:51.064Z,78.20
2023-04-12T17:56:19.103Z,78.60
2023-04-12T17:58:47.217Z,78.90
2023-04-12T18:01:17.696Z,79.00
2023-04-12T18:03:45.064Z,79.20
2023-04-12T18:06:14.082Z,79.70
2023-04-12T18:08:41.363Z,79.70
2023-04-12T18:11:09.424Z,80.10
2023-04-12T18:13:37.103Z,79.90
2023-04-12T18:16:04.516Z,80.10
2023-04-12T18:18:31.823Z,80.10
2023-04-12T18:20:59.243Z,80.30
2023-04-12T18:23:26.765Z,80.40
2023-04-12T18:25:54.070Z,80.60
2023-04-12T18:28:21.383Z,80.80
2023-04-12T18:30:48.713Z,80.60
2023-04-12T18:33:16.736Z,80.50
2023-04-12T18:35:45.162Z,80.00
2023-04-12T18:38:12.448Z,79.60
2023-04-12T18:40:40.538Z,79.60
2023-04-12T18:43:08.312Z,79.70
2023-04-12T18:45:40.715Z,79.80
2023-04-12T18:48:09.180Z,79.80
2023-04-12T18:50:42.511Z,79.40
2023-04-12T18:53:11.038Z,79.90
2023-04-12T18:55:38.371Z,80.10
2023-04-12T18:58:05.692Z,79.50
2023-04-12T19:00:34.155Z,80.00
2023-04-12T19:03:01.813Z,79.90
2023-04-12T19:05:29.506Z,79.30
2023-04-12T19:07:57.067Z,80.20
2023-04-12T19:10:30.885Z,80.00
2023-04-12T19:12:59.168Z,80.00
2023-04-12T19:15:26.567Z,80.20
2023-04-12T19:17:54.031Z,80.40
2023-04-12T19:20:21.318Z,80.30
2023-04-12T19:22:48.674Z,80.80
2023-04-12T19:25:18.231Z,81.30
2023-04-12T19:27:47.179Z,81.20
2023-04-12T19:30:15.149Z,81.00
2023-04-12T19:32:43.115Z,81.10
2023-04-12T19:35:11.117Z,81.30
2023-04-12T19:37:38.642Z,81.50
2023-04-12T19:40:07.153Z,81.90
2023-04-12T19:42:34.512Z,82.80
2023-04-12T19:45:02.668Z,82.80
2023-04-12T19:47:30.190Z,83.30
2023-04-12T19:49:58.454Z,83.40
2023-04-12T19:52:27.666Z,83.70
2023-04-12T19:54:58.268Z,84.10
2023-04-12T19:57:27.909Z,84.50
2023-04-12T19:59:55.792Z,84.80
2023-04-12T20:02:24.879Z,84.90
2023-04-12T20:04:52.759Z,85.20
2023-04-12T20:07:20.070Z,85.10
2023-04-12T20:09:47.420Z,85.30
2023-04-12T20:12:16.920Z,85.30
2023-04-12T20:14:44.145Z,85.70
2023-04-12T20:17:12.328Z,86.00
2023-04-12T20:19:40.613Z,86.10
2023-04-12T20:22:07.962Z,86.20
2023-04-12T20:24:35.259Z,86.30
2023-04-12T20:27:02.976Z,86.00
2023-04-12T20:29:32.323Z,86.30
2023-04-12T20:31:59.639Z,86.70
2023-04-12T20:34:27.118Z,86.60
2023-04-12T20:36:56.119Z,86.40
2023-04-12T20:39:23.597Z,85.90
2023-04-12T20:41:51.724Z,85.60
2023-04-12T20:44:20.090Z,85.50
2023-04-12T20:46:47.676Z,85.10
2023-04-12T20:49:15.334Z,84.50
2023-04-12T20:51:42.801Z,84.70
2023-04-12T20:54:10.886Z,85.30
2023-04-12T20:56:38.297Z,86.00
2023-04-12T20:59:05.761Z,85.80
2023-04-12T21:01:33.706Z,85.40
2023-04-12T21:04:06.232Z,85.00
2023-04-12T21:06:34.960Z,84.10
2023-04-12T21:09:04.907Z,83.60
2023-04-12T21:11:32.526Z,83.80
2023-04-12T21:14:00.002Z,83.90
2023-04-12T21:16:27.389Z,83.60
2023-04-12T21:18:54.919Z,83.40
2023-04-12T21:21:22.784Z,83.30
2023-04-12T21:23:51.717Z,83.20
2023-04-12T21:26:18.960Z,82.80
2023-04-12T21:28:50.286Z,82.70
2023-04-12T21:31:18.313Z,83.20
2023-04-12T21:33:45.657Z,82.90
2023-04-12T21:36:13.357Z,82.80
2023-04-12T21:38:41.539Z,82.90
2023-04-12T21:41:13.339Z,82.90
2023-04-12T21:43:41.315Z,82.40
2023-04-12T21:46:09.493Z,82.10
2023-04-12T21:48:37.595Z,82.50
2023-04-12T21:51:05.363Z,82.30
2023-04-12T21:53:32.715Z,82.10
2023-04-12T21:56:01.343Z,81.90
2023-04-12T21:58:32.802Z,81.80
2023-04-12T22:01:00.289Z,81.70
2023-04-12T22:03:29.047Z,81.20
2023-04-12T22:06:04.440Z,81.30
2023-04-12T22:08:33.367Z,80.90
2023-04-12T22:11:01.642Z,80.80
2023-04-12T22:13:29.359Z,80.30
2023-04-12T22:15:58.349Z,80.20
2023-04-12T22:18:25.575Z,79.80
2023-04-12T22:20:53.316Z,79.80
2023-04-12T22:23:20.849Z,79.80
2023-04-12T22:25:49.907Z,79.50
2023-04-12T22:28:17.352Z,79.10
2023-04-12T22:30:44.709Z,79.30
2023-04-12T22:33:13.942Z,80.30
2023-04-12T22:35:41.338Z,81.20
2023-04-12T22:38:08.721Z,81.90
2023-04-12T22:40:37.341Z,82.70
2023-04-12T22:43:04.687Z,83.60
2023-04-12T22:45:32.376Z,84.00
2023-04-12T22:47:59.632Z,84.40
2023-04-12T22:50:27.036Z,84.80
2023-04-12T22:52:54.740Z,85.20
2023-04-12T22:55:22.464Z,85.80
2023-04-12T22:57:49.786Z,86.10
2023-04-12T23:00:18.486Z,86.50
2023-04-12T23:02:46.802Z,86.60
2023-04-12T23:05:14.486Z,86.80
2023-04-12T23:07:42.422Z,86.90
2023-04-12T23:10:11.022Z,87.30
2023-04-12T23:12:39.429Z,88.00
2023-04-12T23:15:07.176Z,88.10
2023-04-12T23:17:34.592Z,88.50
2023-04-12T23:20:02.235Z,88.90
2023-04-12T23:22:56.107Z,89.10
2023-04-12T23:25:39.936Z,89.60
2023-04-12T23:28:15.359Z,89.70
2023-04-12T23:30:45.153Z,89.90
2023-04-12T23:33:12.670Z,90.40
2023-04-12T23:35:41.698Z,90.40
2023-04-12T23:38:10.085Z,90.30
2023-04-12T23:40:37.421Z,90.70
2023-04-12T23:43:04.694Z,90.80
2023-04-12T23:45:32.539Z,90.70
2023-04-12T23:47:59.888Z,90.80
2023-04-12T23:50:27.365Z,90.80
2023-04-12T23:52:54.632Z,90.90
2023-04-12T23:55:21.902Z,91.10
2023-04-12T23:57:49.187Z,91.30
